createdAt,value
2023-04-30T11:09:41.209Z,0.90
2023-04-30T11:12:14.507Z,1.17
2023-04-30T11:14:44.794Z,1.20
2023-04-30T11:17:14.763Z,1.25
2023-04-30T11:19:49.863Z,1.33
2023-04-30T11:22:19.665Z,1.25
2023-04-30T11:25:06.431Z,1.40
2023-04-30T11:27:35.697Z,1.83
2023-04-30T11:30:05.336Z,1.80
2023-04-30T11:32:35.252Z,1.70
2023-04-30T11:35:04.208Z,1.73
2023-04-30T11:37:33.850Z,1.55
2023-04-30T11:40:05.889Z,1.80
2023-04-30T11:42:35.543Z,2.03
2023-04-30T11:45:09.376Z,1.55
2023-04-30T11:47:41.544Z,1.38
2023-04-30T11:50:10.830Z,1.45
2023-04-30T11:52:39.027Z,1.25
2023-04-30T11:55:09.737Z,1.38
2023-04-30T11:57:41.872Z,1.52
2023-04-30T12:00:13.350Z,1.60
2023-04-30T12:02:42.015Z,1.58
2023-04-30T12:05:15.574Z,1.30
2023-04-30T12:07:47.568Z,1.23
2023-04-30T12:10:17.419Z,1.70
2023-04-30T12:12:45.868Z,1.45
2023-04-30T12:15:15.972Z,1.60
2023-04-30T12:17:44.548Z,1.55
2023-04-30T12:20:14.483Z,1.75
2023-04-30T12:22:43.124Z,1.45
2023-04-30T12:25:14.803Z,1.60
2023-04-30T12:27:47.923Z,1.63
2023-04-30T12:30:16.287Z,1.70
2023-04-30T12:32:46.063Z,1.50
2023-04-30T12:35:18.885Z,1.60
2023-04-30T12:37:48.468Z,1.70
2023-04-30T12:40:16.386Z,1.58
2023-04-30T12:42:46.986Z,1.33
2023-04-30T12:45:35.244Z,1.23
2023-04-30T12:48:03.260Z,1.20
2023-04-30T12:50:31.139Z,1.30
2023-04-30T12:53:04.470Z,1.33
2023-04-30T12:55:32.567Z,1.27
2023-04-30T12:58:12.563Z,1.23
2023-04-30T13:00:49.353Z,1.40
2023-04-30T13:03:21.185Z,1.33
2023-04-30T13:05:50.857Z,1.50
2023-04-30T13:08:19.591Z,1.20
2023-04-30T13:10:48.514Z,1.30
2023-04-30T13:13:20.216Z,1.35
2023-04-30T13:15:48.714Z,1.42
2023-04-30T13:18:16.831Z,1.40
2023-04-30T13:20:45.026Z,1.40
2023-04-30T13:23:13.074Z,1.48
2023-04-30T13:25:42.064Z,1.33
2023-04-30T13:28:10.065Z,1.20
2023-04-30T13:30:44.300Z,0.93
2023-04-30T13:33:12.751Z,1.20
2023-04-30T13:35:40.634Z,1.20
2023-04-30T13:38:08.545Z,1.02
2023-04-30T13:40:36.330Z,1.00
2023-04-30T13:43:04.321Z,1.13
2023-04-30T13:45:32.142Z,1.02
2023-04-30T13:48:01.473Z,1.13
2023-04-30T13:50:29.816Z,1.20
2023-04-30T13:52:59.340Z,0.98
2023-04-30T13:55:27.263Z,1.20
2023-04-30T13:57:55.385Z,1.00
2023-04-30T14:00:23.393Z,1.17
2023-04-30T14:02:51.368Z,1.10
2023-04-30T14:05:20.629Z,1.15
2023-04-30T14:07:48.535Z,1.20
2023-04-30T14:10:16.295Z,0.93
2023-04-30T14:12:44.101Z,1.17
2023-04-30T14:15:12.468Z,1.10
2023-04-30T14:17:40.299Z,1.00
2023-04-30T14:20:09.233Z,1.20
2023-04-30T14:22:39.277Z,2.15
2023-04-30T14:25:09.240Z,1.33
2023-04-30T14:27:37.447Z,0.98
2023-04-30T14:30:06.278Z,1.20
2023-04-30T14:32:34.239Z,1.38
2023-04-30T14:35:02.600Z,1.00
2023-04-30T14:37:30.493Z,1.55
2023-04-30T14:40:01.876Z,1.02
2023-04-30T14:42:29.692Z,1.00
2023-04-30T14:44:57.504Z,0.88
2023-04-30T14:47:27.371Z,0.98
2023-04-30T14:49:55.877Z,0.88
2023-04-30T14:52:23.865Z,1.00
2023-04-30T14:54:51.835Z,1.10
2023-04-30T14:57:21.176Z,1.20
2023-04-30T14:59:49.027Z,1.10
2023-04-30T15:02:16.952Z,1.27
2023-04-30T15:04:46.065Z,1.20
2023-04-30T15:07:14.080Z,1.30
2023-04-30T15:09:41.854Z,0.90
2023-04-30T15:12:09.646Z,1.10
2023-04-30T15:14:38.790Z,1.20
2023-04-30T15:17:06.804Z,1.00
2023-04-30T15:19:34.676Z,1.13
2023-04-30T15:22:02.648Z,1.10
2023-04-30T15:24:30.743Z,1.05
2023-04-30T15:26:58.676Z,1.10
2023-04-30T15:29:26.647Z,1.20
2023-04-30T15:31:56.502Z,1.27
2023-04-30T15:34:24.553Z,1.52
2023-04-30T15:36:52.648Z,1.20
2023-04-30T15:39:21.723Z,1.00
2023-04-30T15:41:49.604Z,1.30
2023-04-30T15:44:17.540Z,1.25
2023-04-30T15:46:45.458Z,1.40
2023-04-30T15:49:15.816Z,1.58
2023-04-30T15:51:49.150Z,1.00
2023-04-30T15:54:17.913Z,1.20
2023-04-30T15:56:45.808Z,1.20
2023-04-30T15:59:17.576Z,1.10
2023-04-30T16:01:47.247Z,1.00
2023-04-30T16:04:16.572Z,1.10
2023-04-30T16:06:44.483Z,1.27
2023-04-30T16:09:13.491Z,1.20
2023-04-30T16:11:41.448Z,1.05
2023-04-30T16:14:09.366Z,1.00
2023-04-30T16:16:37.293Z,1.30
2023-04-30T16:19:07.640Z,1.27
2023-04-30T16:21:38.540Z,1.17
2023-04-30T16:24:07.052Z,1.00
2023-04-30T16:26:36.129Z,1.00
2023-04-30T16:29:05.054Z,0.90
2023-04-30T16:31:33.094Z,1.10
2023-04-30T16:34:01.090Z,1.05
2023-04-30T16:36:29.151Z,0.90
2023-04-30T16:38:58.436Z,1.20
2023-04-30T16:41:26.499Z,1.02
2023-04-30T16:43:54.411Z,1.20
2023-04-30T16:46:22.317Z,1.20
2023-04-30T16:48:50.346Z,1.25
2023-04-30T16:51:18.106Z,0.93
2023-04-30T16:53:45.901Z,1.05
2023-04-30T16:56:15.080Z,0.90
2023-04-30T16:58:42.998Z,1.10
2023-04-30T17:01:11.610Z,0.90
2023-04-30T17:03:39.690Z,1.00
2023-04-30T17:06:08.213Z,1.00
2023-04-30T17:08:36.084Z,1.00
2023-04-30T17:11:03.934Z,0.95
2023-04-30T17:13:33.230Z,1.17
2023-04-30T17:16:02.196Z,1.10
2023-04-30T17:18:30.338Z,0.98
2023-04-30T17:20:58.201Z,1.15
2023-04-30T17:23:26.237Z,1.08
2023-04-30T17:25:54.078Z,1.10
2023-04-30T17:28:22.048Z,1.10
2023-04-30T17:30:51.610Z,0.95
2023-04-30T17:33:19.535Z,1.27
2023-04-30T17:35:47.364Z,1.20
2023-04-30T17:38:15.674Z,0.90
2023-04-30T17:40:43.467Z,1.10
2023-04-30T17:43:11.443Z,1.10
2023-04-30T17:45:39.222Z,1.10
2023-04-30T17:48:08.482Z,1.10
2023-04-30T17:50:37.075Z,1.30
2023-04-30T17:53:04.959Z,1.00
2023-04-30T17:55:32.771Z,1.20
2023-04-30T17:58:00.689Z,1.27
2023-04-30T18:00:28.466Z,1.30
2023-04-30T18:02:56.355Z,1.30
2023-04-30T18:05:25.584Z,1.30
2023-04-30T18:07:53.424Z,1.13
2023-04-30T18:10:21.287Z,1.00
2023-04-30T18:12:50.327Z,1.20
2023-04-30T18:15:18.180Z,1.10
2023-04-30T18:17:46.064Z,1.05
2023-04-30T18:20:13.968Z,1.10
2023-04-30T18:22:43.736Z,1.00
2023-04-30T18:25:13.014Z,1.00
2023-04-30T18:27:41.773Z,0.93
2023-04-30T18:30:11.489Z,1.33
2023-04-30T18:32:39.696Z,1.10
2023-04-30T18:35:08.264Z,1.00
2023-04-30T18:37:36.116Z,0.98
2023-04-30T18:40:05.935Z,0.95
2023-04-30T18:42:34.725Z,1.00
2023-04-30T18:45:02.558Z,1.27
2023-04-30T18:47:30.878Z,1.10
2023-04-30T18:49:58.816Z,1.30
2023-04-30T18:52:26.896Z,1.10
2023-04-30T18:54:55.355Z,0.98
2023-04-30T18:57:24.700Z,1.08
2023-04-30T18:59:52.854Z,1.20
2023-04-30T19:02:21.840Z,1.23
2023-04-30T19:04:50.435Z,1.10
2023-04-30T19:07:18.540Z,0.90
2023-04-30T19:09:48.404Z,1.00
2023-04-30T19:12:16.339Z,1.23
2023-04-30T19:14:45.800Z,1.33
2023-04-30T19:17:14.249Z,1.02
2023-04-30T19:19:43.752Z,1.10
2023-04-30T19:22:11.717Z,1.30
2023-04-30T19:24:39.505Z,1.10
2023-04-30T19:27:07.451Z,1.17
2023-04-30T19:29:35.357Z,1.00
2023-04-30T19:32:04.861Z,1.10
2023-04-30T19:34:32.930Z,1.00
2023-04-30T19:37:00.801Z,1.13
2023-04-30T19:39:31.392Z,1.30
2023-04-30T19:41:59.284Z,1.20
2023-04-30T19:44:29.179Z,1.30
2023-04-30T19:46:57.724Z,1.13
2023-04-30T19:49:27.173Z,1.20
2023-04-30T19:51:55.657Z,1.13
2023-04-30T19:54:23.605Z,1.23
2023-04-30T19:56:54.617Z,1.10
2023-04-30T19:59:22.832Z,1.20
2023-04-30T20:01:52.681Z,1.40
2023-04-30T20:04:23.438Z,1.20
2023-04-30T20:06:56.932Z,1.20
2023-04-30T20:09:26.046Z,1.50
2023-04-30T20:11:55.379Z,1.20
2023-04-30T20:14:23.899Z,1.30
2023-04-30T20:16:54.192Z,1.30
2023-04-30T20:19:22.672Z,1.30
2023-04-30T20:21:53.959Z,1.40
2023-04-30T20:24:22.676Z,1.35
2023-04-30T20:26:50.611Z,1.40
2023-04-30T20:29:20.556Z,1.50
2023-04-30T20:31:48.502Z,1.38
2023-04-30T20:34:16.384Z,1.48
2023-04-30T20:36:44.810Z,1.40
2023-04-30T20:39:14.593Z,1.20
2023-04-30T20:41:43.550Z,1.40
2023-04-30T20:44:11.450Z,1.95
2023-04-30T20:46:39.531Z,1.63
2023-04-30T20:49:07.453Z,1.58
2023-04-30T20:51:36.431Z,1.60
2023-04-30T20:54:04.431Z,1.48
2023-04-30T20:56:33.675Z,1.70
2023-04-30T20:59:01.753Z,1.33
2023-04-30T21:01:29.722Z,1.35
2023-04-30T21:03:57.564Z,1.67
2023-04-30T21:06:25.686Z,1.60
2023-04-30T21:08:53.491Z,1.58
2023-04-30T21:11:21.260Z,1.45
2023-04-30T21:13:51.370Z,1.35
2023-04-30T21:16:19.791Z,1.27
2023-04-30T21:18:48.756Z,1.42
2023-04-30T21:21:16.929Z,1.13
2023-04-30T21:23:46.676Z,1.30
2023-04-30T21:26:16.544Z,1.30
2023-04-30T21:28:44.348Z,1.20
2023-04-30T21:31:13.695Z,1.40
2023-04-30T21:33:41.846Z,1.33
2023-04-30T21:36:09.758Z,1.30
2023-04-30T21:38:37.863Z,1.30
2023-04-30T21:41:05.807Z,1.30
2023-04-30T21:43:33.596Z,1.63
2023-04-30T21:46:03.904Z,1.17
2023-04-30T21:48:34.190Z,1.40
2023-04-30T21:51:02.220Z,1.50
2023-04-30T21:53:30.031Z,1.30
2023-04-30T21:55:57.916Z,1.30
2023-04-30T21:58:26.093Z,1.38
2023-04-30T22:03:59.819Z,1.38
2023-04-30T22:06:37.324Z,1.42
2023-04-30T22:09:08.620Z,1.33
2023-04-30T22:11:40.525Z,1.33
2023-04-30T22:14:20.368Z,1.55
2023-04-30T22:16:52.835Z,1.30
2023-04-30T22:19:30.449Z,1.50
2023-04-30T22:25:01.264Z,1.38
2023-04-30T22:27:42.700Z,1.63
2023-04-30T22:30:15.931Z,1.42
2023-04-30T22:32:44.534Z,1.25
2023-04-30T22:35:17.255Z,1.63
2023-04-30T22:40:14.291Z,1.48
2023-04-30T22:42:43.556Z,1.50
2023-04-30T22:45:12.061Z,1.60
2023-04-30T22:47:41.670Z,1.80
2023-04-30T22:50:11.261Z,1.80
2023-04-30T22:52:40.957Z,1.50
2023-04-30T22:55:09.668Z,1.65
2023-04-30T22:57:37.650Z,1.52
2023-04-30T23:00:06.224Z,1.50
2023-04-30T23:02:34.119Z,1.38
2023-04-30T23:05:03.135Z,1.60
2023-04-30T23:07:32.138Z,1.40
2023-04-30T23:10:01.811Z,1.55
2023-04-30T23:12:30.075Z,1.58
2023-04-30T23:14:57.983Z,1.30
2023-04-30T23:17:27.061Z,1.50
2023-04-30T23:19:55.123Z,1.50
2023-04-30T23:22:23.156Z,1.42
2023-04-30T23:24:52.634Z,1.48
2023-04-30T23:27:28.238Z,1.58
2023-04-30T23:29:57.686Z,1.90
2023-04-30T23:32:27.434Z,1.70
2023-04-30T23:34:58.354Z,2.10
2023-04-30T23:37:26.398Z,1.83
2023-04-30T23:39:54.945Z,1.60
2023-04-30T23:42:24.532Z,1.88
2023-04-30T23:44:52.418Z,1.60
2023-04-30T23:47:20.878Z,1.52
2023-04-30T23:49:48.822Z,1.70
2023-04-30T23:52:16.702Z,1.80
2023-04-30T23:54:44.619Z,1.80
2023-04-30T23:57:12.712Z,1.67
2023-04-30T23:59:42.631Z,1.80
